sensor_id;sensor_type;location;lat;lon;timestamp;P1;durP1;ratioP1;P2;durP2;ratioP2
1567;SDS011;777;47.156;8.326;2023-12-20T00:01:05;29.27;;;26.45;;
1567;SDS011;777;47.156;8.326;2023-12-20T00:03:32;29.52;;;26.58;;
1567;SDS011;777;47.156;8.326;2023-12-20T00:05:59;28.98;;;26.00;;
1567;SDS011;777;47.156;8.326;2023-12-20T00:08:26;29.10;;;26.00;;
1567;SDS011;777;47.156;8.326;2023-12-20T00:10:53;29.10;;;26.05;;
1567;SDS011;777;47.156;8.326;2023-12-20T00:13:21;29.33;;;26.30;;
1567;SDS011;777;47.156;8.326;2023-12-20T00:15:48;28.77;;;25.88;;
1567;SDS011;777;47.156;8.326;2023-12-20T00:18:14;29.20;;;26.17;;
1567;SDS011;777;47.156;8.326;2023-12-20T00:20:41;27.83;;;25.08;;
1567;SDS011;777;47.156;8.326;2023-12-20T00:23:08;28.42;;;25.63;;
1567;SDS011;777;47.156;8.326;2023-12-20T00:25:35;27.42;;;24.70;;
1567;SDS011;777;47.156;8.326;2023-12-20T00:28:02;28.88;;;25.88;;
1567;SDS011;777;47.156;8.326;2023-12-20T00:30:31;26.80;;;24.30;;
1567;SDS011;777;47.156;8.326;2023-12-20T00:32:57;26.83;;;24.20;;
1567;SDS011;777;47.156;8.326;2023-12-20T00:35:24;27.27;;;24.58;;
1567;SDS011;777;47.156;8.326;2023-12-20T00:37:51;26.88;;;24.17;;
1567;SDS011;777;47.156;8.326;2023-12-20T00:40:18;26.17;;;23.48;;
1567;SDS011;777;47.156;8.326;2023-12-20T00:42:45;26.80;;;24.10;;
1567;SDS011;777;47.156;8.326;2023-12-20T00:45:13;27.58;;;24.90;;
1567;SDS011;777;47.156;8.326;2023-12-20T00:47:41;26.40;;;23.75;;
1567;SDS011;777;47.156;8.326;2023-12-20T00:50:08;25.73;;;23.23;;
1567;SDS011;777;47.156;8.326;2023-12-20T00:52:35;26.02;;;23.50;;
1567;SDS011;777;47.156;8.326;2023-12-20T00:55:03;25.50;;;23.00;;
1567;SDS011;777;47.156;8.326;2023-12-20T00:57:30;24.77;;;22.27;;
1567;SDS011;777;47.156;8.326;2023-12-20T00:59:57;25.77;;;23.17;;
1567;SDS011;777;47.156;8.326;2023-12-20T01:02:24;24.13;;;21.73;;
1567;SDS011;777;47.156;8.326;2023-12-20T01:04:52;24.88;;;22.38;;
1567;SDS011;777;47.156;8.326;2023-12-20T01:07:19;24.35;;;21.83;;
1567;SDS011;777;47.156;8.326;2023-12-20T01:09:46;23.55;;;21.40;;
1567;SDS011;777;47.156;8.326;2023-12-20T01:12:13;24.08;;;21.65;;
1567;SDS011;777;47.156;8.326;2023-12-20T01:14:40;25.13;;;22.73;;
1567;SDS011;777;47.156;8.326;2023-12-20T01:17:07;25.83;;;23.23;;
1567;SDS011;777;47.156;8.326;2023-12-20T01:19:34;25.70;;;23.15;;
1567;SDS011;777;47.156;8.326;2023-12-20T01:22:03;24.98;;;22.58;;
1567;SDS011;777;47.156;8.326;2023-12-20T01:24:30;25.45;;;22.83;;
1567;SDS011;777;47.156;8.326;2023-12-20T01:26:57;26.85;;;24.15;;
1567;SDS011;777;47.156;8.326;2023-12-20T01:29:24;29.48;;;26.40;;
1567;SDS011;777;47.156;8.326;2023-12-20T01:31:51;28.52;;;25.40;;
1567;SDS011;777;47.156;8.326;2023-12-20T01:34:18;29.65;;;26.48;;
1567;SDS011;777;47.156;8.326;2023-12-20T01:36:45;27.92;;;24.90;;
1567;SDS011;777;47.156;8.326;2023-12-20T01:39:14;30.60;;;27.50;;
1567;SDS011;777;47.156;8.326;2023-12-20T01:41:40;29.08;;;26.23;;
1567;SDS011;777;47.156;8.326;2023-12-20T01:44:07;27.23;;;24.58;;
1567;SDS011;777;47.156;8.326;2023-12-20T01:46:34;27.42;;;24.50;;
1567;SDS011;777;47.156;8.326;2023-12-20T01:49:01;26.17;;;23.60;;
1567;SDS011;777;47.156;8.326;2023-12-20T01:51:29;29.15;;;26.25;;
1567;SDS011;777;47.156;8.326;2023-12-20T01:53:56;28.35;;;25.55;;
1567;SDS011;777;47.156;8.326;2023-12-20T01:56:26;28.60;;;25.67;;
1567;SDS011;777;47.156;8.326;2023-12-20T01:58:55;27.10;;;24.50;;
1567;SDS011;777;47.156;8.326;2023-12-20T02:01:23;27.20;;;24.42;;
1567;SDS011;777;47.156;8.326;2023-12-20T02:03:50;28.23;;;25.42;;
1567;SDS011;777;47.156;8.326;2023-12-20T02:06:18;27.95;;;25.20;;
1567;SDS011;777;47.156;8.326;2023-12-20T02:08:46;29.30;;;26.13;;
1567;SDS011;777;47.156;8.326;2023-12-20T02:11:14;29.20;;;26.20;;
1567;SDS011;777;47.156;8.326;2023-12-20T02:13:42;30.80;;;27.65;;
1567;SDS011;777;47.156;8.326;2023-12-20T02:16:09;27.27;;;24.55;;
1567;SDS011;777;47.156;8.326;2023-12-20T02:18:36;28.67;;;25.85;;
1567;SDS011;777;47.156;8.326;2023-12-20T02:21:04;29.05;;;26.10;;
1567;SDS011;777;47.156;8.326;2023-12-20T02:23:31;27.92;;;24.77;;
1567;SDS011;777;47.156;8.326;2023-12-20T02:25:58;27.75;;;24.92;;
1567;SDS011;777;47.156;8.326;2023-12-20T02:28:25;27.58;;;24.73;;
1567;SDS011;777;47.156;8.326;2023-12-20T02:30:53;25.60;;;23.15;;
1567;SDS011;777;47.156;8.326;2023-12-20T02:33:19;24.55;;;22.15;;
1567;SDS011;777;47.156;8.326;2023-12-20T02:35:46;24.45;;;22.05;;
1567;SDS011;777;47.156;8.326;2023-12-20T02:38:13;23.67;;;21.40;;
1567;SDS011;777;47.156;8.326;2023-12-20T02:40:42;23.60;;;21.40;;
1567;SDS011;777;47.156;8.326;2023-12-20T02:43:09;22.92;;;20.73;;
1567;SDS011;777;47.156;8.326;2023-12-20T02:45:35;23.65;;;21.35;;
1567;SDS011;777;47.156;8.326;2023-12-20T02:48:03;24.30;;;21.80;;
1567;SDS011;777;47.156;8.326;2023-12-20T02:50:29;23.20;;;20.90;;
1567;SDS011;777;47.156;8.326;2023-12-20T02:52:56;22.52;;;20.33;;
1567;SDS011;777;47.156;8.326;2023-12-20T02:55:23;25.23;;;20.48;;
1567;SDS011;777;47.156;8.326;2023-12-20T02:57:51;21.85;;;19.65;;
1567;SDS011;777;47.156;8.326;2023-12-20T03:00:18;22.67;;;20.48;;
1567;SDS011;777;47.156;8.326;2023-12-20T03:02:45;21.33;;;19.30;;
1567;SDS011;777;47.156;8.326;2023-12-20T03:05:12;19.88;;;17.88;;
1567;SDS011;777;47.156;8.326;2023-12-20T03:07:39;20.80;;;18.75;;
1567;SDS011;777;47.156;8.326;2023-12-20T03:10:06;18.98;;;17.17;;
1567;SDS011;777;47.156;8.326;2023-12-20T03:12:34;20.60;;;18.60;;
1567;SDS011;777;47.156;8.326;2023-12-20T03:15:03;21.60;;;19.38;;
1567;SDS011;777;47.156;8.326;2023-12-20T03:17:30;20.75;;;18.85;;
1567;SDS011;777;47.156;8.326;2023-12-20T03:19:57;21.73;;;19.58;;
1567;SDS011;777;47.156;8.326;2023-12-20T03:22:24;20.10;;;18.30;;
1567;SDS011;777;47.156;8.326;2023-12-20T03:24:51;20.10;;;18.23;;
1567;SDS011;777;47.156;8.326;2023-12-20T03:27:18;20.80;;;18.80;;
1567;SDS011;777;47.156;8.326;2023-12-20T03:29:45;20.30;;;18.40;;
1567;SDS011;777;47.156;8.326;2023-12-20T03:32:13;21.15;;;19.05;;
1567;SDS011;777;47.156;8.326;2023-12-20T03:34:40;20.70;;;18.70;;
1567;SDS011;777;47.156;8.326;2023-12-20T03:37:07;20.13;;;18.10;;
1567;SDS011;777;47.156;8.326;2023-12-20T03:39:34;20.60;;;18.40;;
1567;SDS011;777;47.156;8.326;2023-12-20T03:42:01;20.83;;;18.83;;
1567;SDS011;777;47.156;8.326;2023-12-20T03:44:28;20.75;;;18.83;;
1567;SDS011;777;47.156;8.326;2023-12-20T03:46:54;21.50;;;19.40;;
1567;SDS011;777;47.156;8.326;2023-12-20T03:49:23;20.60;;;18.65;;
1567;SDS011;777;47.156;8.326;2023-12-20T03:51:50;21.70;;;19.67;;
1567;SDS011;777;47.156;8.326;2023-12-20T03:54:16;20.42;;;18.50;;
1567;SDS011;777;47.156;8.326;2023-12-20T03:56:43;20.33;;;18.40;;
1567;SDS011;777;47.156;8.326;2023-12-20T03:59:10;19.27;;;17.33;;
1567;SDS011;777;47.156;8.326;2023-12-20T04:01:37;18.60;;;16.85;;
1567;SDS011;777;47.156;8.326;2023-12-20T04:04:04;17.08;;;15.57;;
1567;SDS011;777;47.156;8.326;2023-12-20T04:06:32;17.92;;;16.20;;
1567;SDS011;777;47.156;8.326;2023-12-20T04:08:59;17.65;;;15.95;;
1567;SDS011;777;47.156;8.326;2023-12-20T04:11:26;17.65;;;16.00;;
1567;SDS011;777;47.156;8.326;2023-12-20T04:13:53;18.00;;;16.30;;
1567;SDS011;777;47.156;8.326;2023-12-20T04:16:20;17.05;;;15.45;;
1567;SDS011;777;47.156;8.326;2023-12-20T04:18:47;17.20;;;15.52;;
1567;SDS011;777;47.156;8.326;2023-12-20T04:21:14;18.25;;;16.50;;
1567;SDS011;777;47.156;8.326;2023-12-20T04:23:42;18.23;;;16.27;;
1567;SDS011;777;47.156;8.326;2023-12-20T04:26:09;16.85;;;15.23;;
1567;SDS011;777;47.156;8.326;2023-12-20T04:28:36;17.30;;;15.70;;
1567;SDS011;777;47.156;8.326;2023-12-20T04:31:03;18.08;;;16.38;;
1567;SDS011;777;47.156;8.326;2023-12-20T04:33:30;18.15;;;16.35;;
1567;SDS011;777;47.156;8.326;2023-12-20T04:35:57;18.38;;;16.58;;
1567;SDS011;777;47.156;8.326;2023-12-20T04:38:25;18.27;;;16.58;;
1567;SDS011;777;47.156;8.326;2023-12-20T04:40:53;16.67;;;15.00;;
1567;SDS011;777;47.156;8.326;2023-12-20T04:43:20;14.68;;;13.38;;
1567;SDS011;777;47.156;8.326;2023-12-20T04:45:47;12.75;;;11.60;;
1567;SDS011;777;47.156;8.326;2023-12-20T04:48:14;13.57;;;12.38;;
1567;SDS011;777;47.156;8.326;2023-12-20T04:50:41;14.27;;;12.88;;
1567;SDS011;777;47.156;8.326;2023-12-20T04:53:08;13.48;;;12.18;;
1567;SDS011;777;47.156;8.326;2023-12-20T04:55:35;12.27;;;11.15;;
1567;SDS011;777;47.156;8.326;2023-12-20T04:58:03;18.98;;;17.17;;
1567;SDS011;777;47.156;8.326;2023-12-20T05:00:30;21.83;;;19.73;;
1567;SDS011;777;47.156;8.326;2023-12-20T05:02:57;22.92;;;20.73;;
1567;SDS011;777;47.156;8.326;2023-12-20T05:05:24;24.38;;;22.02;;
1567;SDS011;777;47.156;8.326;2023-12-20T05:07:51;24.77;;;22.30;;
1567;SDS011;777;47.156;8.326;2023-12-20T05:10:18;24.52;;;21.80;;
1567;SDS011;777;47.156;8.326;2023-12-20T05:12:45;23.85;;;21.42;;
1567;SDS011;777;47.156;8.326;2023-12-20T05:15:13;24.70;;;22.30;;
1567;SDS011;777;47.156;8.326;2023-12-20T05:17:40;25.27;;;22.80;;
1567;SDS011;777;47.156;8.326;2023-12-20T05:20:07;24.48;;;22.17;;
1567;SDS011;777;47.156;8.326;2023-12-20T05:22:35;27.90;;;24.98;;
1567;SDS011;777;47.156;8.326;2023-12-20T05:25:02;22.88;;;20.58;;
1567;SDS011;777;47.156;8.326;2023-12-20T05:27:30;24.13;;;21.83;;
1567;SDS011;777;47.156;8.326;2023-12-20T05:29:57;22.52;;;20.42;;
1567;SDS011;777;47.156;8.326;2023-12-20T05:32:25;23.00;;;20.73;;
1567;SDS011;777;47.156;8.326;2023-12-20T05:34:52;25.48;;;22.88;;
1567;SDS011;777;47.156;8.326;2023-12-20T05:37:19;24.90;;;22.50;;
1567;SDS011;777;47.156;8.326;2023-12-20T05:39:46;23.25;;;20.92;;
1567;SDS011;777;47.156;8.326;2023-12-20T05:42:13;24.52;;;22.13;;
1567;SDS011;777;47.156;8.326;2023-12-20T05:44:39;23.98;;;21.67;;
1567;SDS011;777;47.156;8.326;2023-12-20T05:47:06;23.40;;;21.20;;
1567;SDS011;777;47.156;8.326;2023-12-20T05:49:35;22.13;;;19.70;;
1567;SDS011;777;47.156;8.326;2023-12-20T05:52:02;24.75;;;22.30;;
1567;SDS011;777;47.156;8.326;2023-12-20T05:54:29;23.15;;;20.85;;
1567;SDS011;777;47.156;8.326;2023-12-20T05:56:56;23.23;;;20.83;;
1567;SDS011;777;47.156;8.326;2023-12-20T05:59:23;21.60;;;19.50;;
1567;SDS011;777;47.156;8.326;2023-12-20T06:01:50;23.25;;;21.05;;
1567;SDS011;777;47.156;8.326;2023-12-20T06:04:17;21.10;;;19.10;;
1567;SDS011;777;47.156;8.326;2023-12-20T06:06:45;23.70;;;21.40;;
1567;SDS011;777;47.156;8.326;2023-12-20T06:09:12;25.42;;;22.92;;
1567;SDS011;777;47.156;8.326;2023-12-20T06:11:40;22.35;;;19.85;;
1567;SDS011;777;47.156;8.326;2023-12-20T06:14:07;21.45;;;19.27;;
1567;SDS011;777;47.156;8.326;2023-12-20T06:16:34;19.65;;;17.17;;
1567;SDS011;777;47.156;8.326;2023-12-20T06:19:01;17.30;;;15.60;;
1567;SDS011;777;47.156;8.326;2023-12-20T06:21:28;16.17;;;14.57;;
1567;SDS011;777;47.156;8.326;2023-12-20T06:23:56;18.52;;;16.52;;
1567;SDS011;777;47.156;8.326;2023-12-20T06:26:24;20.15;;;18.13;;
1567;SDS011;777;47.156;8.326;2023-12-20T06:28:51;20.80;;;18.67;;
1567;SDS011;777;47.156;8.326;2023-12-20T06:31:18;21.63;;;19.38;;
1567;SDS011;777;47.156;8.326;2023-12-20T06:33:45;21.63;;;19.50;;
1567;SDS011;777;47.156;8.326;2023-12-20T06:36:12;25.40;;;22.75;;
1567;SDS011;777;47.156;8.326;2023-12-20T06:38:39;25.45;;;22.90;;
1567;SDS011;777;47.156;8.326;2023-12-20T06:41:08;24.88;;;22.58;;
1567;SDS011;777;47.156;8.326;2023-12-20T06:43:38;28.85;;;25.83;;
1567;SDS011;777;47.156;8.326;2023-12-20T06:46:06;27.58;;;24.98;;
1567;SDS011;777;47.156;8.326;2023-12-20T06:48:33;26.73;;;24.23;;
1567;SDS011;777;47.156;8.326;2023-12-20T06:50:59;24.42;;;21.92;;
1567;SDS011;777;47.156;8.326;2023-12-20T06:53:28;23.38;;;20.88;;
1567;SDS011;777;47.156;8.326;2023-12-20T06:55:54;28.15;;;25.38;;
1567;SDS011;777;47.156;8.326;2023-12-20T06:58:23;29.67;;;26.70;;
1567;SDS011;777;47.156;8.326;2023-12-20T07:00:50;26.25;;;23.75;;
1567;SDS011;777;47.156;8.326;2023-12-20T07:03:17;25.88;;;23.20;;
1567;SDS011;777;47.156;8.326;2023-12-20T07:05:44;28.88;;;25.88;;
1567;SDS011;777;47.156;8.326;2023-12-20T07:08:11;27.33;;;24.48;;
1567;SDS011;777;47.156;8.326;2023-12-20T07:10:39;26.15;;;23.65;;
1567;SDS011;777;47.156;8.326;2023-12-20T07:13:06;27.75;;;25.08;;
1567;SDS011;777;47.156;8.326;2023-12-20T07:15:35;25.95;;;23.35;;
1567;SDS011;777;47.156;8.326;2023-12-20T07:18:03;27.23;;;24.63;;
1567;SDS011;777;47.156;8.326;2023-12-20T07:20:31;28.10;;;25.27;;
1567;SDS011;777;47.156;8.326;2023-12-20T07:22:59;27.05;;;24.55;;
1567;SDS011;777;47.156;8.326;2023-12-20T07:25:26;28.65;;;25.90;;
1567;SDS011;777;47.156;8.326;2023-12-20T07:27:53;28.40;;;25.55;;
1567;SDS011;777;47.156;8.326;2023-12-20T07:30:20;26.55;;;23.88;;
1567;SDS011;777;47.156;8.326;2023-12-20T07:32:48;31.48;;;28.48;;
1567;SDS011;777;47.156;8.326;2023-12-20T07:35:15;29.85;;;27.10;;
1567;SDS011;777;47.156;8.326;2023-12-20T07:37:42;30.80;;;27.70;;
1567;SDS011;777;47.156;8.326;2023-12-20T07:40:09;31.80;;;28.70;;
1567;SDS011;777;47.156;8.326;2023-12-20T07:42:36;31.13;;;28.20;;
1567;SDS011;777;47.156;8.326;2023-12-20T07:45:04;32.10;;;28.80;;
1567;SDS011;777;47.156;8.326;2023-12-20T07:47:31;31.77;;;28.85;;
1567;SDS011;777;47.156;8.326;2023-12-20T07:49:59;28.83;;;26.13;;
1567;SDS011;777;47.156;8.326;2023-12-20T07:52:27;26.35;;;23.95;;
1567;SDS011;777;47.156;8.326;2023-12-20T07:54:55;28.25;;;25.65;;
1567;SDS011;777;47.156;8.326;2023-12-20T07:57:22;29.25;;;26.40;;
1567;SDS011;777;47.156;8.326;2023-12-20T07:59:49;28.00;;;25.27;;
1567;SDS011;777;47.156;8.326;2023-12-20T08:02:16;27.05;;;24.60;;
1567;SDS011;777;47.156;8.326;2023-12-20T08:04:43;26.27;;;23.98;;
1567;SDS011;777;47.156;8.326;2023-12-20T08:07:11;28.98;;;26.27;;
1567;SDS011;777;47.156;8.326;2023-12-20T08:09:38;26.05;;;23.80;;
1567;SDS011;777;47.156;8.326;2023-12-20T08:12:05;24.05;;;21.83;;
1567;SDS011;777;47.156;8.326;2023-12-20T08:14:32;23.60;;;21.48;;
1567;SDS011;777;47.156;8.326;2023-12-20T08:16:59;23.05;;;20.98;;
1567;SDS011;777;47.156;8.326;2023-12-20T08:19:26;24.38;;;22.17;;
1567;SDS011;777;47.156;8.326;2023-12-20T08:21:53;22.90;;;20.80;;
1567;SDS011;777;47.156;8.326;2023-12-20T08:24:22;23.40;;;21.20;;
1567;SDS011;777;47.156;8.326;2023-12-20T08:26:49;22.40;;;20.40;;
1567;SDS011;777;47.156;8.326;2023-12-20T08:29:16;21.63;;;19.73;;
1567;SDS011;777;47.156;8.326;2023-12-20T08:31:43;22.33;;;20.33;;
1567;SDS011;777;47.156;8.326;2023-12-20T08:34:11;24.15;;;21.73;;
1567;SDS011;777;47.156;8.326;2023-12-20T08:36:40;22.85;;;20.75;;
1567;SDS011;777;47.156;8.326;2023-12-20T08:39:06;25.08;;;22.90;;
1567;SDS011;777;47.156;8.326;2023-12-20T08:41:35;36.45;;;32.85;;
1567;SDS011;777;47.156;8.326;2023-12-20T08:44:02;28.65;;;25.95;;
1567;SDS011;777;47.156;8.326;2023-12-20T08:46:29;23.70;;;21.50;;
1567;SDS011;777;47.156;8.326;2023-12-20T08:48:56;22.85;;;20.75;;
1567;SDS011;777;47.156;8.326;2023-12-20T08:51:23;23.10;;;21.08;;
1567;SDS011;777;47.156;8.326;2023-12-20T08:53:50;23.27;;;21.17;;
1567;SDS011;777;47.156;8.326;2023-12-20T08:56:17;23.20;;;21.10;;
1567;SDS011;777;47.156;8.326;2023-12-20T08:58:46;22.63;;;20.48;;
1567;SDS011;777;47.156;8.326;2023-12-20T09:01:13;23.27;;;21.15;;
1567;SDS011;777;47.156;8.326;2023-12-20T09:03:40;21.95;;;19.90;;
1567;SDS011;777;47.156;8.326;2023-12-20T09:06:07;19.30;;;17.50;;
1567;SDS011;777;47.156;8.326;2023-12-20T09:08:34;25.50;;;23.10;;
1567;SDS011;777;47.156;8.326;2023-12-20T09:11:01;26.30;;;23.90;;
1567;SDS011;777;47.156;8.326;2023-12-20T09:13:27;18.55;;;16.85;;
1567;SDS011;777;47.156;8.326;2023-12-20T09:15:58;18.40;;;16.80;;
1567;SDS011;777;47.156;8.326;2023-12-20T09:18:25;19.58;;;17.70;;
1567;SDS011;777;47.156;8.326;2023-12-20T09:20:52;26.92;;;24.42;;
1567;SDS011;777;47.156;8.326;2023-12-20T09:23:19;26.42;;;23.83;;
1567;SDS011;777;47.156;8.326;2023-12-20T09:25:46;27.50;;;24.92;;
1567;SDS011;777;47.156;8.326;2023-12-20T09:28:13;20.80;;;18.80;;
1567;SDS011;777;47.156;8.326;2023-12-20T09:30:40;19.88;;;17.95;;
1567;SDS011;777;47.156;8.326;2023-12-20T09:33:08;17.33;;;15.73;;
1567;SDS011;777;47.156;8.326;2023-12-20T09:35:35;16.92;;;15.38;;
1567;SDS011;777;47.156;8.326;2023-12-20T09:38:02;15.55;;;14.00;;
1567;SDS011;777;47.156;8.326;2023-12-20T09:40:29;16.00;;;14.40;;
1567;SDS011;777;47.156;8.326;2023-12-20T09:43:02;14.98;;;13.57;;
1567;SDS011;777;47.156;8.326;2023-12-20T09:45:32;14.77;;;13.48;;
1567;SDS011;777;47.156;8.326;2023-12-20T09:48:00;14.57;;;13.27;;
1567;SDS011;777;47.156;8.326;2023-12-20T09:50:31;14.20;;;12.90;;
1567;SDS011;777;47.156;8.326;2023-12-20T09:52:58;12.70;;;11.60;;
1567;SDS011;777;47.156;8.326;2023-12-20T09:55:29;12.88;;;11.68;;
1567;SDS011;777;47.156;8.326;2023-12-20T09:57:59;14.63;;;13.18;;
1567;SDS011;777;47.156;8.326;2023-12-20T10:00:26;13.20;;;12.00;;
1567;SDS011;777;47.156;8.326;2023-12-20T10:02:55;13.30;;;12.00;;
1567;SDS011;777;47.156;8.326;2023-12-20T10:05:29;12.82;;;11.73;;
1567;SDS011;777;47.156;8.326;2023-12-20T10:07:58;12.43;;;11.32;;
1567;SDS011;777;47.156;8.326;2023-12-20T10:10:25;14.60;;;13.18;;
1567;SDS011;777;47.156;8.326;2023-12-20T10:13:03;14.50;;;13.20;;
1567;SDS011;777;47.156;8.326;2023-12-20T10:15:32;14.80;;;13.40;;
1567;SDS011;777;47.156;8.326;2023-12-20T10:17:59;15.75;;;14.18;;
1567;SDS011;777;47.156;8.326;2023-12-20T10:20:26;15.35;;;13.95;;
1567;SDS011;777;47.156;8.326;2023-12-20T10:22:56;16.58;;;15.07;;
1567;SDS011;777;47.156;8.326;2023-12-20T10:25:23;16.35;;;14.85;;
1567;SDS011;777;47.156;8.326;2023-12-20T10:33:02;14.95;;;13.55;;
1567;SDS011;777;47.156;8.326;2023-12-20T10:35:29;15.00;;;13.25;;
1567;SDS011;777;47.156;8.326;2023-12-20T10:37:57;13.50;;;12.30;;
1567;SDS011;777;47.156;8.326;2023-12-20T10:40:28;12.75;;;11.63;;
1567;SDS011;777;47.156;8.326;2023-12-20T10:42:56;12.30;;;11.20;;
1567;SDS011;777;47.156;8.326;2023-12-20T10:45:25;11.98;;;10.88;;
1567;SDS011;777;47.156;8.326;2023-12-20T10:47:51;12.95;;;11.75;;
1567;SDS011;777;47.156;8.326;2023-12-20T10:50:19;12.23;;;11.15;;
1567;SDS011;777;47.156;8.326;2023-12-20T10:52:46;12.02;;;10.80;;
1567;SDS011;777;47.156;8.326;2023-12-20T10:55:15;11.80;;;10.65;;
1567;SDS011;777;47.156;8.326;2023-12-20T10:57:42;11.90;;;10.80;;
1567;SDS011;777;47.156;8.326;2023-12-20T11:00:16;11.95;;;10.85;;
1567;SDS011;777;47.156;8.326;2023-12-20T11:02:44;12.35;;;11.25;;
1567;SDS011;777;47.156;8.326;2023-12-20T11:05:15;12.68;;;11.52;;
1567;SDS011;777;47.156;8.326;2023-12-20T11:07:52;13.70;;;12.43;;
1567;SDS011;777;47.156;8.326;2023-12-20T11:10:29;12.75;;;11.55;;
1567;SDS011;777;47.156;8.326;2023-12-20T11:12:57;11.82;;;10.80;;
1567;SDS011;777;47.156;8.326;2023-12-20T11:15:34;13.50;;;12.30;;
1567;SDS011;777;47.156;8.326;2023-12-20T11:18:03;11.70;;;10.75;;
1567;SDS011;777;47.156;8.326;2023-12-20T11:20:35;10.90;;;9.90;;
1567;SDS011;777;47.156;8.326;2023-12-20T11:23:03;12.25;;;11.10;;
1567;SDS011;777;47.156;8.326;2023-12-20T11:25:31;13.50;;;10.65;;
1567;SDS011;777;47.156;8.326;2023-12-20T11:28:13;10.18;;;9.27;;
1567;SDS011;777;47.156;8.326;2023-12-20T11:30:40;8.88;;;8.07;;
1567;SDS011;777;47.156;8.326;2023-12-20T11:33:08;7.68;;;6.97;;
1567;SDS011;777;47.156;8.326;2023-12-20T11:35:35;6.55;;;5.95;;
1567;SDS011;777;47.156;8.326;2023-12-20T11:38:04;5.85;;;5.30;;
1567;SDS011;777;47.156;8.326;2023-12-20T11:40:36;4.90;;;4.25;;
1567;SDS011;777;47.156;8.326;2023-12-20T11:43:03;4.68;;;4.00;;
1567;SDS011;777;47.156;8.326;2023-12-20T11:45:30;3.90;;;3.60;;
1567;SDS011;777;47.156;8.326;2023-12-20T11:47:57;3.40;;;3.10;;
1567;SDS011;777;47.156;8.326;2023-12-20T11:50:24;3.67;;;3.10;;
1567;SDS011;777;47.156;8.326;2023-12-20T11:52:52;3.05;;;2.75;;
1567;SDS011;777;47.156;8.326;2023-12-20T11:55:20;3.03;;;2.72;;
1567;SDS011;777;47.156;8.326;2023-12-20T11:57:49;2.88;;;2.53;;
1567;SDS011;777;47.156;8.326;2023-12-20T12:00:17;2.50;;;2.30;;
1567;SDS011;777;47.156;8.326;2023-12-20T12:02:55;3.17;;;2.58;;
1567;SDS011;777;47.156;8.326;2023-12-20T12:05:27;2.95;;;2.67;;
1567;SDS011;777;47.156;8.326;2023-12-20T12:07:53;2.90;;;2.70;;
1567;SDS011;777;47.156;8.326;2023-12-20T12:10:21;2.97;;;2.67;;
1567;SDS011;777;47.156;8.326;2023-12-20T12:12:49;5.22;;;2.85;;
1567;SDS011;777;47.156;8.326;2023-12-20T12:15:16;2.90;;;2.60;;
1567;SDS011;777;47.156;8.326;2023-12-20T12:17:43;3.30;;;3.00;;
1567;SDS011;777;47.156;8.326;2023-12-20T12:20:10;3.17;;;2.88;;
1567;SDS011;777;47.156;8.326;2023-12-20T12:22:37;3.55;;;2.88;;
1567;SDS011;777;47.156;8.326;2023-12-20T12:25:10;3.70;;;3.10;;
1567;SDS011;777;47.156;8.326;2023-12-20T12:27:39;3.63;;;3.25;;
1567;SDS011;777;47.156;8.326;2023-12-20T12:30:09;3.60;;;3.28;;
1567;SDS011;777;47.156;8.326;2023-12-20T12:32:38;4.18;;;3.63;;
1567;SDS011;777;47.156;8.326;2023-12-20T12:35:05;3.67;;;3.38;;
1567;SDS011;777;47.156;8.326;2023-12-20T12:37:34;4.43;;;3.53;;
1567;SDS011;777;47.156;8.326;2023-12-20T12:40:03;3.50;;;3.20;;
1567;SDS011;777;47.156;8.326;2023-12-20T12:42:31;3.38;;;3.08;;
1567;SDS011;777;47.156;8.326;2023-12-20T12:44:58;3.30;;;3.00;;
1567;SDS011;777;47.156;8.326;2023-12-20T12:47:26;3.50;;;2.97;;
1567;SDS011;777;47.156;8.326;2023-12-20T12:49:53;3.35;;;2.88;;
1567;SDS011;777;47.156;8.326;2023-12-20T12:52:20;2.72;;;2.53;;
1567;SDS011;777;47.156;8.326;2023-12-20T12:54:47;3.13;;;2.53;;
1567;SDS011;777;47.156;8.326;2023-12-20T12:57:14;2.65;;;2.45;;
1567;SDS011;777;47.156;8.326;2023-12-20T12:59:42;3.78;;;2.95;;
1567;SDS011;777;47.156;8.326;2023-12-20T13:02:11;4.18;;;3.42;;
1567;SDS011;777;47.156;8.326;2023-12-20T13:04:39;4.13;;;3.45;;
1567;SDS011;777;47.156;8.326;2023-12-20T13:07:07;3.15;;;2.85;;
1567;SDS011;777;47.156;8.326;2023-12-20T13:09:35;2.60;;;2.40;;
1567;SDS011;777;47.156;8.326;2023-12-20T13:12:03;3.17;;;2.85;;
1567;SDS011;777;47.156;8.326;2023-12-20T13:14:31;2.90;;;2.60;;
1567;SDS011;777;47.156;8.326;2023-12-20T13:16:59;2.40;;;2.20;;
1567;SDS011;777;47.156;8.326;2023-12-20T13:19:26;2.53;;;2.00;;
1567;SDS011;777;47.156;8.326;2023-12-20T13:21:55;2.53;;;1.70;;
1567;SDS011;777;47.156;8.326;2023-12-20T13:24:23;1.70;;;1.42;;
1567;SDS011;777;47.156;8.326;2023-12-20T13:26:50;1.75;;;1.50;;
1567;SDS011;777;47.156;8.326;2023-12-20T13:29:17;2.20;;;1.40;;
1567;SDS011;777;47.156;8.326;2023-12-20T13:31:44;2.35;;;1.30;;
1567;SDS011;777;47.156;8.326;2023-12-20T13:34:11;1.58;;;1.38;;
1567;SDS011;777;47.156;8.326;2023-12-20T13:36:38;1.85;;;1.25;;
1567;SDS011;777;47.156;8.326;2023-12-20T13:39:06;1.50;;;1.35;;
1567;SDS011;777;47.156;8.326;2023-12-20T13:41:34;1.70;;;1.25;;
1567;SDS011;777;47.156;8.326;2023-12-20T13:44:01;3.00;;;1.10;;
1567;SDS011;777;47.156;8.326;2023-12-20T13:46:28;1.40;;;1.10;;
1567;SDS011;777;47.156;8.326;2023-12-20T13:48:55;1.63;;;1.20;;
1567;SDS011;777;47.156;8.326;2023-12-20T13:51:22;1.30;;;1.00;;
1567;SDS011;777;47.156;8.326;2023-12-20T13:53:49;1.50;;;1.10;;
1567;SDS011;777;47.156;8.326;2023-12-20T13:56:17;2.05;;;1.33;;
1567;SDS011;777;47.156;8.326;2023-12-20T13:58:45;1.75;;;1.20;;
1567;SDS011;777;47.156;8.326;2023-12-20T14:01:12;2.97;;;1.20;;
1567;SDS011;777;47.156;8.326;2023-12-20T14:03:40;1.20;;;1.10;;
1567;SDS011;777;47.156;8.326;2023-12-20T14:06:07;1.95;;;1.50;;
1567;SDS011;777;47.156;8.326;2023-12-20T14:08:34;3.15;;;1.80;;
1567;SDS011;777;47.156;8.326;2023-12-20T14:11:01;2.67;;;1.50;;
1567;SDS011;777;47.156;8.326;2023-12-20T14:13:29;2.28;;;1.58;;
1567;SDS011;777;47.156;8.326;2023-12-20T14:15:56;3.30;;;1.52;;
1567;SDS011;777;47.156;8.326;2023-12-20T14:18:25;2.25;;;1.50;;
1567;SDS011;777;47.156;8.326;2023-12-20T14:20:52;2.65;;;1.63;;
1567;SDS011;777;47.156;8.326;2023-12-20T14:23:20;2.28;;;1.52;;
1567;SDS011;777;47.156;8.326;2023-12-20T14:25:47;3.60;;;1.70;;
1567;SDS011;777;47.156;8.326;2023-12-20T14:28:15;3.25;;;1.73;;
1567;SDS011;777;47.156;8.326;2023-12-20T14:30:43;2.45;;;1.50;;
1567;SDS011;777;47.156;8.326;2023-12-20T14:33:10;3.20;;;1.63;;
1567;SDS011;777;47.156;8.326;2023-12-20T14:35:37;3.00;;;1.58;;
1567;SDS011;777;47.156;8.326;2023-12-20T14:38:04;2.80;;;1.60;;
1567;SDS011;777;47.156;8.326;2023-12-20T14:40:31;2.10;;;1.52;;
1567;SDS011;777;47.156;8.326;2023-12-20T14:42:58;2.10;;;1.60;;
1567;SDS011;777;47.156;8.326;2023-12-20T14:45:25;3.40;;;1.83;;
1567;SDS011;777;47.156;8.326;2023-12-20T14:47:54;4.18;;;1.77;;
1567;SDS011;777;47.156;8.326;2023-12-20T14:50:21;4.53;;;2.08;;
1567;SDS011;777;47.156;8.326;2023-12-20T14:52:48;3.28;;;2.15;;
1567;SDS011;777;47.156;8.326;2023-12-20T14:55:15;5.68;;;2.88;;
1567;SDS011;777;47.156;8.326;2023-12-20T14:57:43;9.45;;;3.83;;
1567;SDS011;777;47.156;8.326;2023-12-20T15:00:10;9.00;;;3.90;;
1567;SDS011;777;47.156;8.326;2023-12-20T15:02:41;8.75;;;3.47;;
1567;SDS011;777;47.156;8.326;2023-12-20T15:05:09;9.45;;;4.15;;
1567;SDS011;777;47.156;8.326;2023-12-20T15:07:36;5.32;;;2.72;;
1567;SDS011;777;47.156;8.326;2023-12-20T15:10:04;6.05;;;2.60;;
1567;SDS011;777;47.156;8.326;2023-12-20T15:12:31;4.47;;;2.65;;
1567;SDS011;777;47.156;8.326;2023-12-20T15:14:59;4.43;;;2.67;;